Time;durP1;ratioP1;P1;durP2;ratioP2;P2;SDS_P1;SDS_P2;PMS_P1;PMS_P2;Temp;Humidity;BMP_temperature;BMP_pressure;BME280_temperature;BME280_humidity;BME280_pressure;Samples;Min_cycle;Max_cycle;Signal;HPM_P1;HPM_P2
2022/04/13 00:00:16;;;;;;;10.07;6.03;;;6.50;99.90;;;;;;5063545;28;20199;-54
2022/04/13 00:02:43;;;;;;;7.50;5.93;;;6.60;99.90;;;;;;5061615;28;20222;-50
2022/04/13 00:05:11;;;;;;;11.18;6.60;;;6.70;99.90;;;;;;5069350;28;20203;-53
2022/04/13 00:07:38;;;;;;;11.80;6.30;;;6.70;99.90;;;;;;5059925;28;20465;-52
2022/04/13 00:10:07;;;;;;;7.40;5.57;;;6.60;99.90;;;;;;5060111;28;20456;-52
2022/04/13 00:12:35;;;;;;;10.52;7.50;;;6.60;99.90;;;;;;5059941;28;20207;-49
2022/04/13 00:15:02;;;;;;;9.85;6.45;;;6.50;99.90;;;;;;5059927;28;20406;-49
2022/04/13 00:17:30;;;;;;;12.50;6.60;;;6.50;99.90;;;;;;5059757;28;20224;-48
2022/04/13 00:19:58;;;;;;;8.00;6.30;;;6.50;99.90;;;;;;5059503;28;20263;-53
2022/04/13 00:22:26;;;;;;;14.45;7.50;;;6.40;99.90;;;;;;5052561;28;20199;-51
2022/04/13 00:24:53;;;;;;;9.05;6.93;;;6.30;99.90;;;;;;5059130;28;20303;-53
2022/04/13 00:27:20;;;;;;;8.98;5.80;;;6.20;99.90;;;;;;5060071;28;20203;-54
2022/04/13 00:29:48;;;;;;;15.23;8.95;;;6.30;99.90;;;;;;5059788;28;20257;-52
2022/04/13 00:32:15;;;;;;;9.73;6.35;;;6.20;99.90;;;;;;5061000;28;20195;-50
2022/04/13 00:34:42;;;;;;;12.73;7.82;;;6.30;99.90;;;;;;5063375;28;20195;-50
2022/04/13 00:37:10;;;;;;;11.98;8.18;;;6.40;99.90;;;;;;5062070;28;20260;-49
2022/04/13 00:39:37;;;;;;;13.10;7.28;;;6.40;99.90;;;;;;5061113;28;20237;-52
2022/04/13 00:42:07;;;;;;;10.55;7.55;;;6.40;99.90;;;;;;5059296;28;20222;-48
2022/04/13 00:44:34;;;;;;;14.77;8.70;;;6.30;99.90;;;;;;5059309;28;20207;-49
2022/04/13 00:47:07;;;;;;;10.00;6.88;;;6.20;99.90;;;;;;5056971;28;20200;-50
2022/04/13 00:49:38;;;;;;;9.15;7.20;;;6.10;99.90;;;;;;5057962;28;20565;-48
2022/04/13 00:52:06;;;;;;;12.35;8.63;;;6.00;99.90;;;;;;5059325;28;20206;-47
2022/04/13 00:54:34;;;;;;;11.45;7.93;;;6.00;99.90;;;;;;5059456;28;20237;-49
2022/04/13 00:57:08;;;;;;;8.02;7.22;;;6.00;99.90;;;;;;5059693;28;20265;-49
2022/04/13 00:59:39;;;;;;;9.90;8.13;;;5.90;99.90;;;;;;5059462;28;20226;-48
2022/04/13 01:02:08;;;;;;;12.82;7.90;;;6.00;99.90;;;;;;5059258;28;20229;-53
2022/04/13 01:04:36;;;;;;;11.32;8.20;;;5.90;99.90;;;;;;5059106;28;20213;-50
2022/04/13 01:07:08;;;;;;;9.88;6.90;;;6.10;99.90;;;;;;5059224;28;20219;-51
2022/04/13 01:09:37;;;;;;;13.95;8.32;;;6.00;99.90;;;;;;5058705;28;20237;-48
2022/04/13 01:12:05;;;;;;;9.25;8.02;;;5.90;99.90;;;;;;5059450;28;20199;-46
2022/04/13 01:14:32;;;;;;;13.43;9.32;;;6.00;99.90;;;;;;5059186;28;20581;-50
2022/04/13 01:17:00;;;;;;;13.18;7.97;;;6.00;99.90;;;;;;5059918;28;20202;-50
2022/04/13 01:19:28;;;;;;;15.52;8.73;;;6.10;99.90;;;;;;5054932;28;20233;-52
2022/04/13 01:21:59;;;;;;;12.95;8.60;;;6.00;99.90;;;;;;5056173;28;20277;-51
2022/04/13 01:24:29;;;;;;;13.13;8.65;;;6.00;99.90;;;;;;5059260;28;20444;-51
2022/04/13 01:26:57;;;;;;;15.18;9.77;;;5.80;99.90;;;;;;5059699;28;20494;-49
2022/04/13 01:29:27;;;;;;;11.98;10.10;;;5.80;99.90;;;;;;5059001;28;20269;-51
2022/04/13 01:31:56;;;;;;;14.60;9.40;;;5.90;99.90;;;;;;5059530;28;20200;-51
2022/04/13 01:34:23;;;;;;;16.08;10.05;;;5.90;99.90;;;;;;5059196;28;20199;-53
2022/04/13 01:36:54;;;;;;;11.35;8.68;;;5.80;99.90;;;;;;5063370;28;20264;-48
2022/04/13 01:39:22;;;;;;;16.17;10.15;;;5.70;99.90;;;;;;5062944;28;20226;-52
2022/04/13 01:41:49;;;;;;;13.88;8.77;;;5.70;99.90;;;;;;5062660;28;20211;-49
2022/04/13 01:44:17;;;;;;;18.98;9.60;;;5.70;99.90;;;;;;5063065;28;20250;-49
2022/04/13 01:46:44;;;;;;;16.92;10.35;;;5.60;99.90;;;;;;5063060;28;20277;-49
2022/04/13 01:49:12;;;;;;;12.32;9.50;;;5.70;99.90;;;;;;5062918;28;20287;-50
2022/04/13 01:51:39;;;;;;;25.65;11.60;;;5.70;99.90;;;;;;5062755;28;20283;-47
2022/04/13 01:54:06;;;;;;;12.48;10.60;;;5.60;99.90;;;;;;5063407;28;20204;-51
2022/04/13 01:56:33;;;;;;;15.63;9.88;;;5.50;99.90;;;;;;5062637;28;20244;-50
2022/04/13 01:59:01;;;;;;;16.58;9.52;;;5.50;99.90;;;;;;5062779;28;20268;-52
2022/04/13 02:01:31;;;;;;;12.48;9.40;;;5.50;99.90;;;;;;5062204;28;20405;-48
2022/04/13 02:03:58;;;;;;;12.57;9.55;;;5.40;99.90;;;;;;5063636;28;20199;-49
2022/04/13 02:06:26;;;;;;;17.55;10.85;;;5.40;99.90;;;;;;5064788;28;20249;-48
2022/04/13 02:08:54;;;;;;;12.63;10.23;;;5.20;99.90;;;;;;5062747;28;20223;-48
2022/04/13 02:11:21;;;;;;;12.68;9.25;;;5.10;99.90;;;;;;5062569;28;20195;-48
2022/04/13 02:13:49;;;;;;;13.25;9.50;;;5.20;99.90;;;;;;5062129;28;20188;-51
2022/04/13 02:16:16;;;;;;;12.40;9.40;;;5.20;99.90;;;;;;5062334;28;20195;-53
2022/04/13 02:18:44;;;;;;;12.23;9.90;;;5.20;99.90;;;;;;5061931;28;20222;-48
2022/04/13 02:21:11;;;;;;;12.70;9.63;;;5.20;99.90;;;;;;5062311;28;20203;-48
2022/04/13 02:23:38;;;;;;;11.98;9.35;;;5.20;99.90;;;;;;5061937;28;20224;-50
2022/04/13 02:26:06;;;;;;;13.70;10.38;;;5.00;99.90;;;;;;5063503;28;20200;-50
2022/04/13 02:28:33;;;;;;;15.23;10.68;;;5.00;99.90;;;;;;5063081;28;20222;-48
2022/04/13 02:31:00;;;;;;;16.92;11.90;;;5.00;99.90;;;;;;5062531;28;20245;-50
2022/04/13 02:33:31;;;;;;;13.75;10.27;;;5.10;99.90;;;;;;5061890;28;20402;-49
2022/04/13 02:35:58;;;;;;;19.65;12.20;;;5.00;99.90;;;;;;5061918;28;20195;-48
2022/04/13 02:38:26;;;;;;;19.23;10.98;;;5.00;99.90;;;;;;5064247;28;20218;-49
2022/04/13 02:40:54;;;;;;;17.83;11.55;;;5.00;99.90;;;;;;5063678;28;20253;-50
2022/04/13 02:43:24;;;;;;;14.07;10.60;;;4.90;99.90;;;;;;5063792;28;20199;-49
2022/04/13 02:45:52;;;;;;;16.60;10.68;;;4.90;99.90;;;;;;5064887;28;20199;-50
2022/04/13 02:48:19;;;;;;;12.30;10.48;;;4.90;99.90;;;;;;5065431;28;20541;-52
2022/04/13 02:50:48;;;;;;;15.88;11.85;;;4.90;99.90;;;;;;5067114;28;20220;-50
2022/04/13 02:53:16;;;;;;;19.77;12.50;;;4.90;99.90;;;;;;5064621;28;20252;-53
2022/04/13 02:55:44;;;;;;;13.75;10.90;;;4.80;99.90;;;;;;5061004;28;20195;-54
2022/04/13 02:58:11;;;;;;;14.77;12.00;;;4.80;99.90;;;;;;5061330;28;20226;-51
2022/04/13 03:00:38;;;;;;;14.10;11.00;;;4.50;99.90;;;;;;5061524;28;20199;-51
2022/04/13 03:03:06;;;;;;;23.67;12.25;;;4.50;99.90;;;;;;5061261;28;20248;-49
2022/04/13 03:05:33;;;;;;;14.05;12.10;;;4.60;99.90;;;;;;5061140;28;20202;-48
2022/04/13 03:08:01;;;;;;;20.92;12.75;;;4.60;99.90;;;;;;5060294;28;20433;-49
2022/04/13 03:10:29;;;;;;;25.48;11.23;;;4.50;99.90;;;;;;5061273;28;20227;-47
2022/04/13 03:12:56;;;;;;;19.88;12.30;;;4.50;99.90;;;;;;5061394;28;20343;-48
2022/04/13 03:15:24;;;;;;;14.65;11.25;;;4.50;99.90;;;;;;5061322;28;20535;-50
2022/04/13 03:17:51;;;;;;;14.27;11.68;;;4.40;99.90;;;;;;5061461;28;20223;-48
2022/04/13 03:20:19;;;;;;;15.07;11.13;;;4.40;99.90;;;;;;5059497;28;20202;-50
2022/04/13 03:22:50;;;;;;;13.05;10.55;;;4.30;99.90;;;;;;5060492;28;20260;-50
2022/04/13 03:25:17;;;;;;;19.95;11.80;;;4.40;99.90;;;;;;5059818;28;20555;-48
2022/04/13 03:27:44;;;;;;;16.92;11.18;;;4.40;99.90;;;;;;5059880;28;20229;-50
2022/04/13 03:30:16;;;;;;;19.38;13.27;;;4.30;99.90;;;;;;5059059;28;20230;-49
2022/04/13 03:32:43;;;;;;;14.88;11.00;;;4.40;99.90;;;;;;5055980;28;20379;-50
2022/04/13 03:35:11;;;;;;;21.85;12.90;;;4.50;99.90;;;;;;5060631;28;20199;-49
2022/04/13 03:37:39;;;;;;;21.52;13.18;;;4.50;99.90;;;;;;5063143;28;20839;-49
2022/04/13 03:40:09;;;;;;;16.92;12.32;;;4.40;99.90;;;;;;5079270;28;20378;-48
2022/04/13 03:42:39;;;;;;;19.42;13.43;;;4.40;99.90;;;;;;5080648;28;20389;-52
2022/04/13 03:45:12;;;;;;;18.50;13.43;;;4.40;99.90;;;;;;5080692;28;20209;-47
2022/04/13 03:47:40;;;;;;;31.77;13.70;;;4.40;99.90;;;;;;5080320;28;20461;-46
2022/04/13 03:50:08;;;;;;;21.80;14.35;;;4.50;99.90;;;;;;5080290;28;20233;-46
2022/04/13 03:52:37;;;;;;;14.70;11.65;;;4.40;99.90;;;;;;5080630;28;20277;-51
2022/04/13 03:55:07;;;;;;;23.38;12.50;;;4.40;99.90;;;;;;5080504;28;20446;-48
2022/04/13 03:57:35;;;;;;;15.60;11.80;;;4.40;99.90;;;;;;5080398;28;20217;-48
2022/04/13 04:00:07;;;;;;;16.20;12.98;;;4.40;99.90;;;;;;5070159;28;20255;-53
2022/04/13 04:02:38;;;;;;;20.30;14.68;;;4.40;99.90;;;;;;5073862;28;20354;-49
2022/04/13 04:05:07;;;;;;;21.35;15.20;;;4.30;99.90;;;;;;5066489;28;20270;-51
2022/04/13 04:07:37;;;;;;;22.70;14.40;;;4.30;99.90;;;;;;5064042;28;20239;-46
2022/04/13 04:10:05;;;;;;;16.35;13.05;;;4.30;99.90;;;;;;5054071;28;20222;-49
2022/04/13 04:12:40;;;;;;;20.20;13.80;;;4.30;99.90;;;;;;5060035;28;20194;-50
2022/04/13 04:15:09;;;;;;;18.42;12.95;;;4.30;99.90;;;;;;5060237;28;20194;-47
2022/04/13 04:17:37;;;;;;;19.08;13.20;;;4.30;99.90;;;;;;5059687;28;20632;-47
2022/04/13 04:20:08;;;;;;;23.58;15.90;;;4.40;99.90;;;;;;5060163;28;20332;-53
2022/04/13 04:22:35;;;;;;;21.23;14.05;;;4.40;99.90;;;;;;5059810;28;20233;-48
2022/04/13 04:25:04;;;;;;;21.10;13.85;;;4.50;99.90;;;;;;5060041;28;20202;-51
2022/04/13 04:27:32;;;;;;;18.15;13.70;;;4.50;99.90;;;;;;5059682;28;20298;-48
2022/04/13 04:30:00;;;;;;;16.67;14.93;;;4.60;99.90;;;;;;5060092;28;20287;-49
2022/04/13 04:32:27;;;;;;;20.40;12.95;;;4.70;99.90;;;;;;5059619;28;20203;-52
2022/04/13 04:34:55;;;;;;;26.65;14.13;;;4.60;99.90;;;;;;5059935;28;20434;-51
2022/04/13 04:37:22;;;;;;;17.20;14.27;;;4.60;99.90;;;;;;5059736;28;20202;-50
2022/04/13 04:39:51;;;;;;;21.45;14.35;;;4.60;99.90;;;;;;5059493;28;20269;-48
2022/04/13 04:42:18;;;;;;;31.55;17.48;;;4.80;99.90;;;;;;5059598;28;20256;-49
2022/04/13 04:44:46;;;;;;;17.95;13.57;;;4.70;99.90;;;;;;5059182;28;20233;-49
2022/04/13 04:47:13;;;;;;;21.98;15.15;;;4.80;99.90;;;;;;5059971;28;20225;-47
2022/04/13 04:49:42;;;;;;;17.40;13.35;;;5.00;99.90;;;;;;5060750;28;20228;-48
2022/04/13 04:52:10;;;;;;;18.23;13.30;;;5.20;99.90;;;;;;5062246;28;20206;-48
2022/04/13 04:54:37;;;;;;;21.35;13.73;;;5.50;99.90;;;;;;5067887;28;20195;-47
2022/04/13 04:57:04;;;;;;;25.40;13.90;;;5.60;99.90;;;;;;5060045;28;20250;-47
2022/04/13 04:59:32;;;;;;;16.13;13.13;;;5.80;99.90;;;;;;5059791;28;20294;-47
2022/04/13 05:02:01;;;;;;;18.75;13.85;;;6.00;99.90;;;;;;5052816;28;20216;-54
2022/04/13 05:04:29;;;;;;;24.58;17.35;;;6.20;99.90;;;;;;5044527;28;20200;-50
2022/04/13 05:06:56;;;;;;;19.60;13.95;;;6.30;99.90;;;;;;5043225;28;20212;-52
2022/04/13 05:09:25;;;;;;;22.05;15.40;;;6.50;99.90;;;;;;5053060;28;20343;-52
2022/04/13 05:11:52;;;;;;;20.80;14.75;;;6.60;99.90;;;;;;5063184;28;20191;-49
2022/04/13 05:14:22;;;;;;;21.80;14.65;;;6.60;99.90;;;;;;5062105;28;20503;-48
2022/04/13 05:16:49;;;;;;;20.98;14.63;;;6.70;99.90;;;;;;5045850;28;20200;-50
2022/04/13 05:19:17;;;;;;;23.00;16.65;;;6.80;99.90;;;;;;5054995;28;20215;-48
2022/04/13 05:21:44;;;;;;;19.95;14.52;;;7.00;99.90;;;;;;5048164;28;20240;-49
2022/04/13 05:24:11;;;;;;;19.13;14.20;;;7.10;99.90;;;;;;5057872;28;20208;-53
2022/04/13 05:26:39;;;;;;;26.88;18.30;;;7.10;99.90;;;;;;5043206;28;20279;-51
2022/04/13 05:29:06;;;;;;;25.33;16.20;;;7.20;99.90;;;;;;5036731;28;20539;-47
2022/04/13 05:31:33;;;;;;;29.58;15.60;;;7.20;99.90;;;;;;5054699;28;20215;-48
2022/04/13 05:34:01;;;;;;;23.17;17.42;;;7.40;99.90;;;;;;5030583;28;20228;-51
2022/04/13 05:36:29;;;;;;;17.77;15.18;;;7.50;99.90;;;;;;5028055;28;20273;-47
2022/04/13 05:38:56;;;;;;;16.85;14.77;;;7.50;99.90;;;;;;5029019;28;20225;-48
2022/04/13 05:41:23;;;;;;;20.63;16.13;;;7.60;99.90;;;;;;5029097;28;20201;-53
2022/04/13 05:43:50;;;;;;;22.00;15.63;;;7.70;99.90;;;;;;5033243;28;20427;-50
2022/04/13 05:46:18;;;;;;;27.63;16.55;;;7.80;99.90;;;;;;5042830;28;20426;-50
2022/04/13 05:48:45;;;;;;;18.92;13.82;;;8.10;99.90;;;;;;5043241;28;20302;-52
2022/04/13 05:51:13;;;;;;;18.95;13.10;;;8.30;99.90;;;;;;5049053;28;20215;-54
2022/04/13 05:53:40;;;;;;;17.90;13.88;;;8.50;99.90;;;;;;5043649;28;20197;-49
2022/04/13 05:56:11;;;;;;;22.88;15.10;;;8.70;99.90;;;;;;5042292;28;20193;-48
2022/04/13 05:58:38;;;;;;;19.92;14.80;;;9.00;99.90;;;;;;5041842;28;20222;-50
2022/04/13 06:01:06;;;;;;;20.33;16.05;;;9.50;99.90;;;;;;5042534;28;20209;-48
2022/04/13 06:03:36;;;;;;;19.10;13.90;;;10.20;99.90;;;;;;5042364;28;20297;-51
2022/04/13 06:06:09;;;;;;;18.77;12.05;;;10.70;99.90;;;;;;5041731;28;20461;-55
2022/04/13 06:08:37;;;;;;;19.77;14.35;;;11.10;99.90;;;;;;5041970;28;20280;-48
2022/04/13 06:11:07;;;;;;;22.73;15.73;;;11.40;99.90;;;;;;5042078;28;20287;-47
2022/04/13 06:13:34;;;;;;;18.30;14.07;;;11.70;99.90;;;;;;5041612;28;20196;-51
2022/04/13 06:16:02;;;;;;;21.20;13.82;;;11.70;99.90;;;;;;5042098;28;20503;-50
2022/04/13 06:18:29;;;;;;;24.25;14.82;;;12.00;99.90;;;;;;5041569;28;20254;-47
2022/04/13 06:20:57;;;;;;;23.40;15.52;;;12.80;99.90;;;;;;5041487;28;20200;-50
2022/04/13 06:23:24;;;;;;;23.23;16.30;;;13.40;99.90;;;;;;5041459;28;20411;-53
2022/04/13 06:25:51;;;;;;;18.88;16.40;;;13.80;99.90;;;;;;5042441;28;20206;-48
2022/04/13 06:28:18;;;;;;;19.33;15.75;;;14.10;99.90;;;;;;5041624;28;20439;-48
2022/04/13 06:30:46;;;;;;;22.33;16.57;;;14.00;99.90;;;;;;5041802;28;20225;-48
2022/04/13 06:33:13;;;;;;;22.17;15.07;;;14.70;99.90;;;;;;5042207;28;20426;-54
2022/04/13 06:35:40;;;;;;;28.60;14.80;;;15.70;99.90;;;;;;5041745;28;20405;-48
2022/04/13 06:38:07;;;;;;;22.30;15.30;;;16.60;99.90;;;;;;5041368;28;20420;-51
2022/04/13 06:40:35;;;;;;;22.43;17.40;;;16.40;99.90;;;;;;5041577;28;20412;-51
2022/04/13 06:43:02;;;;;;;31.63;18.67;;;15.50;99.90;;;;;;5042529;28;20461;-51
2022/04/13 06:45:29;;;;;;;20.17;18.07;;;16.20;99.90;;;;;;5045845;28;20438;-48
2022/04/13 06:47:57;;;;;;;19.70;16.90;;;16.90;99.80;;;;;;5046554;28;20520;-52
2022/04/13 06:50:24;;;;;;;22.17;17.57;;;17.50;97.30;;;;;;5045889;28;20479;-55
2022/04/13 06:52:52;;;;;;;20.70;17.20;;;18.10;96.60;;;;;;5041868;28;20519;-50
2022/04/13 06:55:19;;;;;;;31.50;18.37;;;18.40;94.70;;;;;;5041415;28;20495;-52
2022/04/13 06:57:46;;;;;;;22.83;17.23;;;18.40;93.60;;;;;;5040995;28;20507;-50
2022/04/13 07:00:14;;;;;;;22.83;17.97;;;18.40;94.40;;;;;;5041472;28;20644;-50
2022/04/13 07:02:41;;;;;;;28.23;18.30;;;18.40;92.80;;;;;;5040967;28;20484;-51
2022/04/13 07:05:29;;;;;;;22.27;18.60;;;18.70;92.20;;;;;;5041101;28;20756;-51
2022/04/13 07:07:58;;;;;;;22.10;16.73;;;18.90;91.50;;;;;;5041132;28;20446;-50
2022/04/13 07:10:27;;;;;;;22.93;18.63;;;19.10;90.60;;;;;;5041073;28;20446;-51
2022/04/13 07:13:01;;;;;;;22.00;17.43;;;19.30;90.30;;;;;;5028820;28;20508;-50
2022/04/13 07:15:29;;;;;;;21.90;18.57;;;19.30;89.70;;;;;;5021028;28;20601;-53
2022/04/13 07:17:57;;;;;;;21.30;16.73;;;19.70;89.00;;;;;;5021029;28;20449;-51
2022/04/13 07:20:24;;;;;;;26.10;20.07;;;20.20;85.20;;;;;;5021124;28;20439;-46
2022/04/13 07:22:53;;;;;;;24.63;17.50;;;20.50;83.80;;;;;;5021134;28;20523;-53
2022/04/13 07:25:24;;;;;;;23.43;16.27;;;20.20;84.20;;;;;;5020967;28;20460;-50
2022/04/13 07:27:52;;;;;;;19.23;16.60;;;20.30;83.70;;;;;;5021240;28;20452;-49
2022/04/13 07:30:19;;;;;;;23.80;18.03;;;20.10;82.40;;;;;;5021462;28;20467;-50
2022/04/13 07:32:51;;;;;;;22.83;17.83;;;20.20;82.80;;;;;;5022601;28;20473;-49
2022/04/13 07:35:18;;;;;;;20.07;16.43;;;20.30;82.10;;;;;;5021198;28;20405;-52
2022/04/13 07:37:46;;;;;;;20.67;18.30;;;20.10;82.60;;;;;;5020421;28;20456;-52
2022/04/13 07:40:14;;;;;;;19.97;17.90;;;21.10;79.20;;;;;;5021075;28;20444;-51
2022/04/13 07:42:43;;;;;;;23.53;18.77;;;21.20;79.00;;;;;;5020712;28;20461;-52
2022/04/13 07:45:10;;;;;;;19.60;16.77;;;20.30;81.90;;;;;;5041119;28;20443;-48
2022/04/13 07:47:38;;;;;;;21.33;16.67;;;19.90;81.80;;;;;;5037648;28;20445;-50
2022/04/13 07:50:06;;;;;;;21.43;17.80;;;20.00;81.00;;;;;;5039913;28;20471;-50
2022/04/13 07:52:37;;;;;;;21.03;17.53;;;20.30;79.90;;;;;;5039226;28;20489;-54
2022/04/13 07:55:06;;;;;;;26.43;18.63;;;21.20;78.60;;;;;;5039842;28;20511;-48
2022/04/13 07:57:34;;;;;;;21.60;18.00;;;21.30;76.80;;;;;;5039040;28;20559;-52
2022/04/13 08:00:02;;;;;;;19.27;17.30;;;21.70;74.80;;;;;;5046033;28;20547;-50
2022/04/13 08:02:29;;;;;;;19.07;17.07;;;21.50;75.20;;;;;;5053136;28;20803;-50
2022/04/13 08:05:04;;;;;;;36.40;17.10;;;20.90;75.50;;;;;;5060069;28;20430;-56
2022/04/13 08:07:31;;;;;;;19.17;15.83;;;19.70;79.60;;;;;;5059628;28;20788;-48
2022/04/13 08:09:59;;;;;;;19.97;16.63;;;18.70;81.70;;;;;;5059611;28;20431;-51
2022/04/13 08:12:31;;;;;;;20.23;16.50;;;19.90;81.00;;;;;;5059558;28;20451;-55
2022/04/13 08:14:59;;;;;;;19.63;16.80;;;20.50;78.20;;;;;;5058379;28;20746;-53
2022/04/13 08:17:27;;;;;;;19.60;15.53;;;20.90;75.60;;;;;;5058324;28;20499;-55
2022/04/13 08:19:54;;;;;;;17.80;15.63;;;21.50;75.00;;;;;;5059527;28;20469;-49
2022/04/13 08:22:26;;;;;;;19.73;17.60;;;22.50;74.40;;;;;;5059410;28;20441;-48
2022/04/13 08:24:56;;;;;;;26.80;17.03;;;23.30;71.10;;;;;;5059889;28;20428;-50
2022/04/13 08:27:24;;;;;;;19.07;17.03;;;24.60;66.30;;;;;;5059360;28;20441;-50
2022/04/13 08:29:51;;;;;;;19.40;15.03;;;23.10;67.90;;;;;;5059904;28;20609;-52
2022/04/13 08:32:19;;;;;;;18.80;16.80;;;23.60;66.30;;;;;;5059241;28;20463;-51
2022/04/13 08:34:49;;;;;;;20.57;16.67;;;24.30;64.80;;;;;;5059780;28;20495;-49
2022/04/13 08:37:16;;;;;;;20.90;16.00;;;23.60;65.40;;;;;;5059150;28;20429;-48
2022/04/13 08:39:43;;;;;;;24.77;16.10;;;22.60;66.90;;;;;;5059479;28;20403;-51
2022/04/13 08:42:26;;;;;;;18.47;14.87;;;22.60;67.00;;;;;;5059575;28;20437;-52
2022/04/13 08:44:53;;;;;;;23.37;17.07;;;22.40;67.10;;;;;;5058828;28;20457;-50
2022/04/13 08:47:24;;;;;;;18.50;15.50;;;22.80;65.90;;;;;;5059775;28;20441;-50
2022/04/13 08:49:53;;;;;;;21.27;15.87;;;22.90;65.20;;;;;;5059482;28;20502;-48
2022/04/13 08:52:28;;;;;;;15.50;13.90;;;24.10;62.80;;;;;;5047386;28;20477;-49
2022/04/13 08:55:11;;;;;;;21.70;15.10;;;25.10;60.40;;;;;;5039450;28;20429;-50
2022/04/13 08:57:41;;;;;;;16.63;14.93;;;24.80;59.90;;;;;;5040009;28;20457;-47
2022/04/13 09:00:14;;;;;;;16.03;13.40;;;24.00;61.00;;;;;;5040481;28;20437;-50
2022/04/13 09:03:04;;;;;;;17.93;14.30;;;23.00;62.30;;;;;;5040535;28;20783;-53
2022/04/13 09:05:42;;;;;;;18.13;14.43;;;22.90;62.10;;;;;;5039842;28;20463;-50
2022/04/13 09:08:31;;;;;;;16.90;13.57;;;22.20;64.10;;;;;;5040221;28;20446;-53
2022/04/13 09:11:00;;;;;;;15.00;13.47;;;21.30;67.50;;;;;;5042855;28;20589;-50
2022/04/13 09:13:32;;;;;;;17.50;13.70;;;20.70;67.50;;;;;;5043846;28;20447;-51
2022/04/13 09:16:02;;;;;;;16.03;12.40;;;20.90;67.90;;;;;;5043637;28;20679;-53
2022/04/13 09:18:29;;;;;;;13.10;11.67;;;21.20;66.60;;;;;;5041541;28;20474;-51
2022/04/13 09:20:58;;;;;;;14.93;12.37;;;22.00;64.10;;;;;;5042276;28;20452;-48
2022/04/13 09:23:27;;;;;;;13.87;11.03;;;22.30;64.40;;;;;;5039169;28;20649;-48
2022/04/13 09:25:56;;;;;;;19.20;13.50;;;22.00;64.30;;;;;;5039367;28;20409;-51
2022/04/13 09:28:25;;;;;;;19.97;13.53;;;20.00;69.40;;;;;;5039413;28;20457;-55
2022/04/13 09:30:54;;;;;;;14.60;12.93;;;18.80;71.60;;;;;;5039710;28;20488;-48
2022/04/13 09:33:22;;;;;;;18.97;14.93;;;18.00;75.00;;;;;;5038859;28;20452;-50
2022/04/13 09:35:49;;;;;;;24.97;14.27;;;17.90;75.20;;;;;;5039398;28;20796;-48
2022/04/13 09:38:19;;;;;;;17.80;13.43;;;18.00;76.00;;;;;;5039290;28;20818;-48
2022/04/13 09:40:50;;;;;;;17.53;14.33;;;18.10;76.50;;;;;;5039466;28;20432;-49
2022/04/13 09:43:21;;;;;;;12.90;11.60;;;18.10;76.90;;;;;;5039342;28;20419;-50
2022/04/13 09:45:50;;;;;;;14.03;12.60;;;18.00;76.50;;;;;;5038810;28;20416;-50
2022/04/13 09:48:19;;;;;;;17.30;12.77;;;17.50;74.50;;;;;;5039268;28;20657;-53
2022/04/13 09:50:49;;;;;;;15.60;11.60;;;17.20;76.90;;;;;;5039034;28;20474;-48
2022/04/13 09:53:20;;;;;;;20.10;11.47;;;16.90;78.60;;;;;;5039313;28;20407;-48
2022/04/13 09:56:00;;;;;;;13.50;10.90;;;17.00;77.20;;;;;;5039346;28;20414;-54
2022/04/13 09:58:30;;;;;;;12.23;10.03;;;17.00;77.40;;;;;;5042273;28;20505;-52
2022/04/13 10:01:03;;;;;;;11.07;9.87;;;17.00;75.50;;;;;;5042451;28;20424;-51
2022/04/13 10:03:30;;;;;;;14.27;9.87;;;17.30;76.70;;;;;;5042306;28;20755;-50
2022/04/13 10:05:58;;;;;;;13.53;9.90;;;17.40;75.20;;;;;;5042526;28;20433;-49
2022/04/13 10:08:27;;;;;;;11.13;9.30;;;17.40;74.50;;;;;;5042291;28;20476;-52
2022/04/13 10:10:59;;;;;;;12.43;8.53;;;17.40;73.50;;;;;;5042307;28;20457;-49
2022/04/13 10:13:37;;;;;;;14.60;10.00;;;17.50;72.20;;;;;;5042165;28;20471;-48
2022/04/13 10:16:09;;;;;;;9.97;7.27;;;17.60;73.30;;;;;;5045048;28;20425;-50
2022/04/13 10:18:56;;;;;;;16.50;9.47;;;17.50;70.00;;;;;;5045555;28;20438;-52
2022/04/13 10:21:33;;;;;;;9.70;8.50;;;17.30;70.90;;;;;;5042667;28;20436;-52
2022/04/13 10:24:04;;;;;;;13.30;8.60;;;17.70;71.70;;;;;;5042816;28;20728;-49
2022/04/13 10:26:31;;;;;;;11.07;8.10;;;17.90;72.90;;;;;;5042099;28;20437;-52
2022/04/13 10:28:59;;;;;;;13.13;8.70;;;18.00;71.70;;;;;;5042273;28;20435;-49
2022/04/13 10:31:26;;;;;;;8.50;7.60;;;18.10;68.90;;;;;;5041832;28;20476;-49
2022/04/13 10:33:55;;;;;;;14.20;9.40;;;18.20;69.80;;;;;;5042101;28;20441;-48
2022/04/13 10:36:22;;;;;;;9.47;8.33;;;18.10;72.00;;;;;;5042449;28;20411;-50
2022/04/13 10:38:50;;;;;;;17.83;11.20;;;18.00;69.00;;;;;;5042503;28;20473;-48
2022/04/13 10:41:20;;;;;;;16.23;8.67;;;17.80;73.10;;;;;;5041784;28;20502;-48
2022/04/13 10:43:50;;;;;;;13.03;10.03;;;17.80;73.30;;;;;;5042019;28;20498;-50
2022/04/13 10:46:21;;;;;;;14.70;9.90;;;18.00;74.80;;;;;;5041428;28;20478;-52
2022/04/13 10:48:55;;;;;;;16.10;10.67;;;18.00;73.50;;;;;;5041756;28;20427;-49
2022/04/13 10:51:33;;;;;;;15.00;11.50;;;18.30;74.80;;;;;;5040002;28;20650;-53
2022/04/13 10:54:07;;;;;;;13.63;11.20;;;18.10;75.30;;;;;;5041701;28;20472;-51
2022/04/13 10:56:38;;;;;;;14.80;9.43;;;18.10;76.90;;;;;;5041054;28;20486;-49
2022/04/13 10:59:09;;;;;;;15.73;8.53;;;17.90;72.40;;;;;;5042143;28;20416;-53
2022/04/13 11:01:46;;;;;;;9.40;6.50;;;17.90;71.20;;;;;;5045871;28;20465;-52
2022/04/13 11:04:16;;;;;;;10.13;7.50;;;17.90;67.40;;;;;;5047010;28;20407;-53
2022/04/13 11:06:46;;;;;;;12.43;8.63;;;18.00;68.90;;;;;;5045232;28;20456;-56
2022/04/13 11:09:21;;;;;;;11.40;9.17;;;17.90;70.20;;;;;;5045079;28;20465;-50
2022/04/13 11:11:49;;;;;;;17.60;9.93;;;18.10;73.40;;;;;;5041394;28;20526;-51
2022/04/13 11:14:18;;;;;;;13.03;9.70;;;18.20;71.60;;;;;;5036300;28;20463;-51
2022/04/13 11:16:46;;;;;;;13.60;9.30;;;18.10;72.00;;;;;;5032069;28;20429;-51
2022/04/13 11:19:13;;;;;;;14.33;8.90;;;18.20;71.40;;;;;;5036708;28;20523;-47
2022/04/13 11:21:58;;;;;;;11.37;8.13;;;18.30;73.10;;;;;;5033519;28;20445;-48
2022/04/13 11:24:40;;;;;;;10.23;8.67;;;18.40;68.20;;;;;;5033495;28;20475;-50
2022/04/13 11:27:09;;;;;;;14.63;10.77;;;18.30;69.20;;;;;;5036204;28;20444;-49
2022/04/13 11:30:00;;;;;;;10.17;6.90;;;18.10;73.90;;;;;;5035635;28;20412;-50
2022/04/13 11:32:32;;;;;;;13.87;8.20;;;17.90;66.50;;;;;;5033583;28;20459;-49
2022/04/13 11:35:02;;;;;;;16.50;10.40;;;17.70;70.00;;;;;;5037456;28;20455;-47
2022/04/13 11:37:36;;;;;;;20.47;11.53;;;17.60;74.20;;;;;;5035974;28;20452;-50
2022/04/13 11:40:10;;;;;;;16.80;11.37;;;17.90;74.40;;;;;;5035817;28;20473;-48
2022/04/13 11:42:42;;;;;;;12.37;8.43;;;18.10;70.40;;;;;;5034746;28;20488;-50
2022/04/13 11:45:15;;;;;;;11.97;7.97;;;18.10;67.80;;;;;;5037810;28;20606;-53
2022/04/13 11:47:49;;;;;;;14.00;9.20;;;18.20;71.60;;;;;;5039756;28;20433;-51
2022/04/13 11:50:19;;;;;;;11.63;9.30;;;18.20;70.00;;;;;;5042008;28;20432;-54
2022/04/13 11:53:06;;;;;;;10.77;8.73;;;18.10;69.50;;;;;;5036261;28;20488;-52
2022/04/13 11:55:39;;;;;;;9.60;8.50;;;18.20;71.70;;;;;;5040847;28;20427;-52
2022/04/13 11:58:10;;;;;;;11.90;8.73;;;18.30;70.70;;;;;;5050663;28;20450;-53
2022/04/13 12:00:57;;;;;;;11.97;9.40;;;18.30;71.30;;;;;;5062270;28;20495;-51
2022/04/13 12:03:32;;;;;;;13.10;9.27;;;18.40;72.60;;;;;;5060337;28;20432;-51
2022/04/13 12:06:11;;;;;;;16.17;10.00;;;18.40;72.00;;;;;;5059976;28;20459;-49
2022/04/13 12:08:40;;;;;;;8.00;6.50;;;18.60;71.20;;;;;;5060816;28;20805;-48
2022/04/13 12:11:13;;;;;;;12.40;9.33;;;18.50;69.70;;;;;;5060468;28;20526;-50
2022/04/13 12:13:55;;;;;;;11.37;7.57;;;18.60;71.20;;;;;;5061527;28;20495;-48
2022/04/13 12:16:25;;;;;;;10.10;6.90;;;18.70;68.20;;;;;;5060490;28;20403;-53
2022/04/13 12:19:01;;;;;;;13.57;8.90;;;18.60;65.40;;;;;;5061379;28;20696;-47
2022/04/13 12:21:36;;;;;;;7.53;6.17;;;18.60;66.30;;;;;;5061243;28;20723;-48
2022/04/13 12:24:05;;;;;;;8.87;7.37;;;18.70;61.50;;;;;;5059219;28;20428;-48
2022/04/13 12:26:42;;;;;;;16.53;8.97;;;18.70;66.90;;;;;;5059881;28;20411;-53
2022/04/13 12:29:20;;;;;;;13.00;8.80;;;18.70;67.70;;;;;;5060448;28;20634;-49
2022/04/13 12:31:49;;;;;;;12.20;8.60;;;18.80;69.00;;;;;;5059924;28;20700;-50
2022/04/13 12:34:17;;;;;;;12.17;7.03;;;19.00;68.50;;;;;;5060279;28;20659;-48
2022/04/13 12:36:59;;;;;;;12.13;8.47;;;19.00;61.80;;;;;;5059271;28;20475;-51
2022/04/13 12:39:32;;;;;;;7.80;7.10;;;18.70;65.30;;;;;;5059465;28;20440;-53
2022/04/13 12:42:01;;;;;;;12.17;9.03;;;18.60;67.00;;;;;;5059497;28;20829;-49
2022/04/13 12:44:29;;;;;;;10.10;8.30;;;18.60;70.00;;;;;;5059166;28;20406;-53
2022/04/13 12:47:04;;;;;;;13.57;9.10;;;18.80;68.50;;;;;;5059160;28;20436;-51